createdAt,value
2018-09-12T00:02:26.876Z,20.64
2018-09-12T00:04:55.847Z,20.67
2018-09-12T00:07:24.841Z,20.67
2018-09-12T00:09:54.030Z,20.69
2018-09-12T00:12:22.956Z,20.68
2018-09-12T00:14:52.063Z,20.69
2018-09-12T00:17:22.042Z,20.70
2018-09-12T00:19:52.993Z,20.68
2018-09-12T00:22:21.976Z,20.68
2018-09-12T00:24:50.963Z,20.68
2018-09-12T00:27:20.901Z,20.66
2018-09-12T00:29:49.924Z,20.67
2018-09-12T00:32:18.891Z,20.65
2018-09-12T00:34:47.893Z,20.61
2018-09-12T00:37:16.891Z,20.60
2018-09-12T00:39:45.866Z,20.57
2018-09-12T00:42:15.798Z,20.56
2018-09-12T00:44:44.748Z,20.56
2018-09-12T00:47:14.653Z,20.56
2018-09-12T00:49:44.587Z,20.54
2018-09-12T00:52:13.573Z,20.52
2018-09-12T00:54:43.561Z,20.51
2018-09-12T00:57:12.477Z,20.48
2018-09-12T00:59:41.354Z,20.44
2018-09-12T01:02:10.258Z,20.41
2018-09-12T01:04:41.269Z,20.40
2018-09-12T01:07:10.219Z,20.39
2018-09-12T01:09:39.185Z,20.34
2018-09-12T01:12:08.100Z,20.32
2018-09-12T01:14:37.093Z,20.34
2018-09-12T01:17:06.080Z,20.32
2018-09-12T01:19:34.936Z,20.33
2018-09-12T01:22:03.861Z,20.22
2018-09-12T01:24:33.828Z,20.24
2018-09-12T01:27:02.781Z,20.24
2018-09-12T01:29:31.800Z,20.21
2018-09-12T01:32:00.812Z,20.18
2018-09-12T01:34:29.757Z,20.15
2018-09-12T01:36:58.756Z,20.14
2018-09-12T01:39:27.719Z,20.10
2018-09-12T01:41:56.675Z,19.98
2018-09-12T01:44:25.613Z,19.98
2018-09-12T01:46:55.541Z,19.91
2018-09-12T01:49:24.975Z,19.79
2018-09-12T01:51:53.914Z,19.84
2018-09-12T01:54:22.813Z,19.78
2018-09-12T01:56:52.720Z,19.77
2018-09-12T01:59:22.677Z,19.71
2018-09-12T02:01:51.649Z,19.69
2018-09-12T02:04:20.648Z,19.71
2018-09-12T02:06:50.528Z,19.69
2018-09-12T02:09:19.483Z,19.61
2018-09-12T02:11:48.458Z,19.62
2018-09-12T02:14:18.355Z,19.57
2018-09-12T02:16:47.319Z,19.53
2018-09-12T02:19:16.261Z,19.51
2018-09-12T02:21:46.162Z,19.52
2018-09-12T02:24:15.189Z,19.54
2018-09-12T02:26:44.118Z,19.52
2018-09-12T02:29:14.069Z,19.47
2018-09-12T02:31:43.041Z,19.44
2018-09-12T02:34:11.974Z,19.43
2018-09-12T02:36:40.923Z,19.40
2018-09-12T02:39:09.943Z,19.33
2018-09-12T02:41:39.876Z,19.34
2018-09-12T02:44:08.801Z,19.33
2018-09-12T02:46:37.753Z,19.28
2018-09-12T02:49:08.941Z,19.24
2018-09-12T02:51:38.959Z,19.21
2018-09-12T02:54:08.959Z,19.23
2018-09-12T02:56:37.887Z,19.23
2018-09-12T02:59:08.857Z,19.24
2018-09-12T03:01:37.828Z,19.25
2018-09-12T03:04:17.608Z,19.17
2018-09-12T03:06:46.553Z,19.20
2018-09-12T03:09:16.497Z,19.18
2018-09-12T03:11:45.493Z,19.15
2018-09-12T03:14:15.074Z,19.17
2018-09-12T03:16:45.767Z,19.17
2018-09-12T03:19:15.148Z,19.15
2018-09-12T03:21:44.088Z,19.12
2018-09-12T03:24:13.085Z,19.10
2018-09-12T03:26:42.990Z,19.07
2018-09-12T03:29:11.934Z,19.05
2018-09-12T03:31:41.817Z,18.99
2018-09-12T03:34:11.766Z,19.00
2018-09-12T03:36:40.734Z,19.04
2018-09-12T03:39:11.934Z,19.00
2018-09-12T03:41:41.475Z,18.96
2018-09-12T03:44:11.648Z,18.97
2018-09-12T03:46:41.339Z,18.90
2018-09-12T03:49:10.876Z,18.83
2018-09-12T03:51:39.791Z,18.91
2018-09-12T03:54:10.909Z,18.91
2018-09-12T03:56:40.039Z,18.90
2018-09-12T03:59:09.168Z,18.86
2018-09-12T04:01:40.289Z,18.85
2018-09-12T04:04:10.354Z,18.88
2018-09-12T04:06:39.472Z,18.88
2018-09-12T04:09:09.944Z,18.90
2018-09-12T04:11:38.949Z,18.83
2018-09-12T04:14:07.928Z,18.82
2018-09-12T04:16:36.995Z,18.80
2018-09-12T04:19:06.943Z,18.75
2018-09-12T04:21:36.893Z,18.75
2018-09-12T04:24:05.893Z,18.73
2018-09-12T04:26:39.003Z,18.78
2018-09-12T04:29:07.907Z,18.77
2018-09-12T04:31:37.825Z,18.78
2018-09-12T04:34:07.963Z,18.67
2018-09-12T04:36:36.946Z,18.63
2018-09-12T04:39:08.917Z,18.65
2018-09-12T04:41:38.855Z,18.64
2018-09-12T04:44:07.849Z,18.49
2018-09-12T04:46:36.920Z,18.49
2018-09-12T04:49:06.196Z,18.52
2018-09-12T04:51:36.258Z,18.49
2018-09-12T04:54:05.304Z,18.46
2018-09-12T04:56:34.235Z,18.52
2018-09-12T04:59:05.298Z,18.48
2018-09-12T05:01:34.238Z,18.35
2018-09-12T05:04:04.285Z,18.38
2018-09-12T05:06:34.179Z,18.37
2018-09-12T05:09:03.303Z,18.38
2018-09-12T05:11:33.411Z,18.37
2018-09-12T05:14:03.317Z,18.28
2018-09-12T05:16:32.648Z,18.26
2018-09-12T05:19:03.020Z,18.18
2018-09-12T05:21:34.161Z,18.15
2018-09-12T05:24:04.103Z,18.01
2018-09-12T05:26:34.018Z,18.02
2018-09-12T05:29:05.186Z,18.00
2018-09-12T05:31:34.135Z,18.02
2018-09-12T05:34:03.023Z,18.07
2018-09-12T05:36:33.047Z,18.12
2018-09-12T05:39:01.934Z,18.06
2018-09-12T05:41:30.900Z,18.03
2018-09-12T05:44:00.872Z,18.13
2018-09-12T05:46:30.832Z,18.03
2018-09-12T05:49:01.239Z,18.02
2018-09-12T05:51:31.217Z,18.06
2018-09-12T05:54:00.189Z,17.99
2018-09-12T05:56:30.129Z,18.13
2018-09-12T05:58:59.237Z,18.25
2018-09-12T06:01:28.492Z,18.27
2018-09-12T06:03:57.792Z,18.31
2018-09-12T06:06:26.893Z,18.31
2018-09-12T06:08:57.051Z,18.39
2018-09-12T06:11:27.044Z,18.47
2018-09-12T06:13:56.488Z,18.60
2018-09-12T06:16:25.662Z,18.65
2018-09-12T06:18:54.790Z,18.65
2018-09-12T06:21:25.746Z,18.74
2018-09-12T06:23:54.742Z,18.80
2018-09-12T06:26:23.709Z,18.84
2018-09-12T06:28:53.770Z,18.91
2018-09-12T06:31:23.717Z,18.96
2018-09-12T06:33:52.714Z,18.97
2018-09-12T06:36:21.709Z,18.92
2018-09-12T06:38:51.614Z,18.96
2018-09-12T06:41:21.550Z,19.07
2018-09-12T06:43:50.922Z,19.12
2018-09-12T06:46:21.352Z,19.05
2018-09-12T06:48:51.781Z,19.03
2018-09-12T06:51:22.093Z,19.04
2018-09-12T06:53:51.510Z,19.04
2018-09-12T06:56:21.857Z,19.11
2018-09-12T06:58:52.571Z,19.12
2018-09-12T07:01:23.014Z,19.20
2018-09-12T07:03:53.605Z,19.30
2018-09-12T07:06:22.934Z,19.30
2018-09-12T07:08:53.474Z,19.29
2018-09-12T07:11:22.502Z,19.28
2018-09-12T07:13:51.479Z,19.16
2018-09-12T07:16:21.509Z,19.07
2018-09-12T07:18:50.635Z,19.17
2018-09-12T07:21:20.611Z,19.28
2018-09-12T07:23:49.609Z,19.31
2018-09-12T07:26:18.572Z,19.30
2018-09-12T07:28:47.547Z,19.31
2018-09-12T07:31:17.457Z,19.34
2018-09-12T07:33:46.402Z,19.35
2018-09-12T07:36:15.384Z,19.32
2018-09-12T07:38:44.349Z,19.35
2018-09-12T07:41:14.295Z,19.34
2018-09-12T07:43:43.286Z,19.41
2018-09-12T07:46:12.267Z,19.42
2018-09-12T07:48:42.241Z,19.35
2018-09-12T07:51:12.184Z,19.44
2018-09-12T07:53:41.189Z,19.37
2018-09-12T07:56:10.214Z,19.46
2018-09-12T07:58:40.093Z,19.57
2018-09-12T08:01:09.079Z,19.57
2018-09-12T08:03:38.100Z,19.52
2018-09-12T08:06:09.013Z,19.54
2018-09-12T08:08:38.963Z,19.59
2018-09-12T08:11:09.167Z,19.66
2018-09-12T08:13:39.075Z,19.67
2018-09-12T08:16:09.504Z,19.68
2018-09-12T08:18:39.050Z,19.68
2018-09-12T08:21:10.157Z,19.71
2018-09-12T08:23:40.367Z,19.77
2018-09-12T08:26:10.478Z,19.78
2018-09-12T08:28:39.374Z,19.78
2018-09-12T08:31:09.354Z,19.83
2018-09-12T08:33:39.289Z,19.86
2018-09-12T08:36:09.312Z,19.87
2018-09-12T08:38:39.478Z,19.88
2018-09-12T08:41:08.446Z,19.91
2018-09-12T08:43:37.445Z,19.96
2018-09-12T08:46:06.696Z,19.99
2018-09-12T08:48:36.635Z,20.01
2018-09-12T08:51:05.651Z,19.99
2018-09-12T08:53:34.633Z,20.05
2018-09-12T08:56:04.573Z,20.07
2018-09-12T08:58:33.543Z,20.12
2018-09-12T09:01:02.508Z,20.16
2018-09-12T09:03:32.405Z,20.28
2018-09-12T09:06:01.373Z,20.28
2018-09-12T09:08:30.341Z,20.35
2018-09-12T09:10:59.349Z,20.33
2018-09-12T09:13:28.327Z,20.42
2018-09-12T09:15:57.315Z,20.42
2018-09-12T09:18:26.548Z,20.45
2018-09-12T09:20:56.672Z,20.51
2018-09-12T09:23:25.624Z,20.64
2018-09-12T09:25:54.607Z,20.71
2018-09-12T09:28:23.942Z,20.79
2018-09-12T09:30:53.501Z,20.82
2018-09-12T09:33:22.434Z,20.95
2018-09-12T09:35:51.471Z,21.02
2018-09-12T09:38:20.413Z,21.12
2018-09-12T09:40:49.421Z,21.20
2018-09-12T09:43:18.781Z,21.24
2018-09-12T09:45:48.202Z,21.26
2018-09-12T09:48:17.714Z,21.33
2018-09-12T09:50:46.844Z,21.38
2018-09-12T09:53:15.803Z,21.48
2018-09-12T09:55:45.258Z,21.63
2018-09-12T09:58:14.605Z,21.66
2018-09-12T10:00:49.157Z,21.60
2018-09-12T10:03:24.824Z,21.50
2018-09-12T10:05:59.425Z,21.52
2018-09-12T10:08:34.387Z,21.52
2018-09-12T10:11:05.319Z,21.51
2018-09-12T10:13:34.908Z,21.53
2018-09-12T10:16:04.413Z,21.52
2018-09-12T10:18:35.479Z,21.49
2018-09-12T10:21:05.006Z,21.51
2018-09-12T10:23:34.380Z,21.50
2018-09-12T10:26:03.802Z,21.52
2018-09-12T10:28:32.722Z,21.58
2018-09-12T10:31:02.651Z,21.59
2018-09-12T10:33:31.681Z,21.58
2018-09-12T10:36:01.633Z,21.55
2018-09-12T10:38:31.594Z,21.61
2018-09-12T10:41:01.994Z,21.55
2018-09-12T10:43:31.408Z,21.59
2018-09-12T10:46:00.752Z,21.70
2018-09-12T10:48:33.331Z,21.74
2018-09-12T10:51:03.814Z,21.66
2018-09-12T10:53:33.382Z,21.72
2018-09-12T10:56:02.906Z,21.74
2018-09-12T10:58:32.401Z,21.83
2018-09-12T11:01:01.953Z,21.84
2018-09-12T11:03:31.054Z,21.85
2018-09-12T11:06:00.497Z,21.78
2018-09-12T11:08:30.466Z,21.77
2018-09-12T11:10:59.515Z,21.86
2018-09-12T11:13:29.773Z,21.89
2018-09-12T11:15:59.170Z,21.98
2018-09-12T11:18:28.198Z,21.99
2018-09-12T11:20:58.238Z,21.86
2018-09-12T11:23:27.189Z,21.74
2018-09-12T11:25:56.359Z,21.78
2018-09-12T11:28:25.591Z,21.86
2018-09-12T11:30:55.707Z,21.97
2018-09-12T11:33:25.882Z,21.97
2018-09-12T11:35:55.864Z,21.98
2018-09-12T11:38:25.851Z,21.95
2018-09-12T11:40:54.794Z,21.92
2018-09-12T11:43:24.007Z,21.98
2018-09-12T11:45:52.982Z,22.05
2018-09-12T11:48:22.309Z,22.03
2018-09-12T11:50:52.249Z,22.01
2018-09-12T11:53:21.359Z,21.88
2018-09-12T11:55:50.372Z,21.96
2018-09-12T11:58:19.322Z,21.97
2018-09-12T12:00:49.193Z,21.92
2018-09-12T12:03:18.182Z,21.72
2018-09-12T12:05:47.107Z,21.61
2018-09-12T12:08:16.147Z,21.54
2018-09-12T12:10:46.246Z,21.38
2018-09-12T12:13:15.367Z,21.37
2018-09-12T12:15:44.370Z,21.43
2018-09-12T12:18:13.320Z,21.29
2018-09-12T12:20:42.332Z,21.14
2018-09-12T12:23:15.033Z,21.03
2018-09-12T12:25:44.033Z,21.07
2018-09-12T12:28:14.173Z,20.87
2018-09-12T12:30:47.816Z,20.63
2018-09-12T12:33:17.907Z,20.57
2018-09-12T12:35:47.839Z,20.75
2018-09-12T12:38:17.717Z,20.83
2018-09-12T12:40:46.788Z,20.77
2018-09-12T12:43:15.732Z,20.87
2018-09-12T12:45:44.647Z,20.87
2018-09-12T12:48:14.521Z,20.79
2018-09-12T12:50:43.448Z,20.66
2018-09-12T12:53:12.426Z,20.78
2018-09-12T12:55:42.363Z,20.89
2018-09-12T12:58:11.386Z,20.75
2018-09-12T13:00:41.339Z,20.73
2018-09-12T13:03:11.275Z,20.74
2018-09-12T13:05:41.226Z,20.86
2018-09-12T13:08:10.300Z,20.74
2018-09-12T13:10:40.357Z,20.75
2018-09-12T13:13:09.448Z,20.71
2018-09-12T13:15:41.762Z,20.64
2018-09-12T13:18:10.810Z,20.75
2018-09-12T13:20:39.768Z,20.40
2018-09-12T13:23:09.714Z,20.43
2018-09-12T13:25:38.732Z,20.22
2018-09-12T13:28:07.671Z,20.06
2018-09-12T13:30:36.767Z,20.02
2018-09-12T13:33:05.906Z,19.89
2018-09-12T13:35:34.974Z,19.95
2018-09-12T13:38:08.965Z,19.86
2018-09-12T13:40:37.908Z,19.44
2018-09-12T13:43:07.137Z,19.28
2018-09-12T13:45:36.179Z,19.18
2018-09-12T13:48:06.275Z,19.14
2018-09-12T13:50:36.284Z,18.96
2018-09-12T13:53:05.308Z,19.22
2018-09-12T13:55:35.267Z,18.99
2018-09-12T13:58:05.519Z,19.14
2018-09-12T14:00:34.525Z,19.07
2018-09-12T14:03:04.730Z,18.94
2018-09-12T14:05:33.947Z,19.04
2018-09-12T14:08:02.954Z,19.05
2018-09-12T14:10:32.950Z,18.90
2018-09-12T14:13:02.294Z,18.91
2018-09-12T14:15:32.598Z,18.76
2018-09-12T14:18:02.423Z,18.33
2018-09-12T14:20:32.678Z,18.14
2018-09-12T14:23:01.909Z,18.33
2018-09-12T14:25:31.668Z,18.50
2018-09-12T14:28:01.339Z,18.40
2018-09-12T14:30:30.709Z,18.22
2018-09-12T14:33:00.675Z,18.39
2018-09-12T14:35:29.659Z,18.33
2018-09-12T14:37:58.719Z,18.37
2018-09-12T14:40:28.019Z,18.28
2018-09-12T14:42:58.155Z,18.28
2018-09-12T14:45:27.612Z,18.31
2018-09-12T14:47:56.884Z,18.29
2018-09-12T14:50:27.037Z,17.98
2018-09-12T14:52:57.136Z,18.08
2018-09-12T14:55:26.664Z,18.01
2018-09-12T14:57:56.244Z,17.84
2018-09-12T15:00:27.121Z,17.63
2018-09-12T15:02:58.831Z,17.66
2018-09-12T15:05:28.904Z,17.61
2018-09-12T15:07:59.328Z,17.70
2018-09-12T15:10:28.724Z,17.59
2018-09-12T15:12:59.780Z,17.50
2018-09-12T15:15:29.017Z,17.45
2018-09-12T15:17:59.534Z,17.46
2018-09-12T15:20:29.784Z,17.65
2018-09-12T15:23:00.099Z,17.61
2018-09-12T15:25:29.175Z,17.52
2018-09-12T15:27:59.194Z,17.49
2018-09-12T15:30:28.968Z,17.31
2018-09-12T15:32:59.018Z,17.31
2018-09-12T15:35:28.928Z,17.22
2018-09-12T15:37:58.963Z,17.27
2018-09-12T15:40:28.503Z,17.33
2018-09-12T15:42:57.864Z,17.16
2018-09-12T15:45:29.023Z,17.22
2018-09-12T15:47:58.577Z,17.33
2018-09-12T15:50:30.758Z,17.36
2018-09-12T15:53:00.162Z,17.41
2018-09-12T15:55:29.307Z,17.21
2018-09-12T15:57:58.391Z,17.12
2018-09-12T16:00:28.613Z,17.31
2018-09-12T16:02:57.666Z,17.34
2018-09-12T16:05:28.140Z,17.39
2018-09-12T16:07:58.063Z,17.39
2018-09-12T16:10:27.536Z,17.45
2018-09-12T16:12:56.862Z,17.23
2018-09-12T16:15:27.512Z,17.27
2018-09-12T16:17:58.394Z,17.34
2018-09-12T16:20:27.924Z,17.40
2018-09-12T16:22:56.961Z,17.40
2018-09-12T16:25:26.051Z,17.45
2018-09-12T16:27:57.079Z,17.32
2018-09-12T16:30:26.325Z,17.25
2018-09-12T16:32:55.486Z,17.27
2018-09-12T16:35:25.247Z,17.32
2018-09-12T16:37:55.556Z,17.29
2018-09-12T16:40:25.135Z,17.33
2018-09-12T16:42:54.546Z,17.23
2018-09-12T16:45:24.977Z,17.37
2018-09-12T16:47:54.445Z,17.31
2018-09-12T16:50:26.153Z,17.25
2018-09-12T16:52:56.121Z,17.22
2018-09-12T16:55:26.765Z,17.14
2018-09-12T16:57:57.214Z,17.23
2018-09-12T17:00:26.657Z,17.23
2018-09-12T17:02:56.177Z,17.24
2018-09-12T17:05:25.201Z,17.31
2018-09-12T17:07:54.139Z,17.26
2018-09-12T17:10:23.138Z,17.29
2018-09-12T17:12:53.193Z,17.33
2018-09-12T17:15:22.145Z,17.33
2018-09-12T17:17:51.123Z,17.19
2018-09-12T17:20:21.689Z,17.31
2018-09-12T17:22:51.202Z,17.26
2018-09-12T17:25:21.679Z,17.42
2018-09-12T17:27:51.319Z,17.34
2018-09-12T17:30:20.841Z,17.38
2018-09-12T17:32:53.971Z,17.23
2018-09-12T17:35:24.706Z,17.21
2018-09-12T17:37:53.971Z,17.22
2018-09-12T17:40:22.969Z,17.29
2018-09-12T17:42:51.949Z,17.34
2018-09-12T17:45:21.899Z,17.29
2018-09-12T17:47:50.845Z,17.23
2018-09-12T17:50:23.793Z,17.31
2018-09-12T17:52:53.751Z,17.27
2018-09-12T17:55:22.707Z,17.20
2018-09-12T17:57:51.633Z,17.21
2018-09-12T18:00:22.732Z,17.18
2018-09-12T18:02:52.675Z,17.25
2018-09-12T18:05:22.599Z,17.24
2018-09-12T18:07:51.826Z,17.22
2018-09-12T18:10:20.789Z,17.18
2018-09-12T18:12:49.825Z,17.16
2018-09-12T18:15:23.006Z,17.23
2018-09-12T18:17:51.941Z,17.17
2018-09-12T18:20:22.118Z,17.05
2018-09-12T18:22:51.069Z,17.09
2018-09-12T18:25:20.051Z,17.13
2018-09-12T18:27:49.985Z,17.15
2018-09-12T18:30:20.056Z,17.16
2018-09-12T18:32:48.972Z,17.21
2018-09-12T18:35:18.946Z,17.09
2018-09-12T18:37:48.160Z,17.12
2018-09-12T18:40:17.283Z,17.22
2018-09-12T18:42:46.584Z,17.11
2018-09-12T18:45:15.522Z,17.13
2018-09-12T18:47:44.484Z,17.23
2018-09-12T18:50:13.528Z,17.26
2018-09-12T18:52:42.520Z,17.21
2018-09-12T18:55:11.462Z,17.20
2018-09-12T18:57:40.497Z,17.29
2018-09-12T19:00:10.627Z,17.25
2018-09-12T19:02:40.058Z,17.22
2018-09-12T19:05:10.505Z,17.09
2018-09-12T19:07:40.949Z,17.08
2018-09-12T19:10:11.470Z,17.09
2018-09-12T19:12:41.068Z,17.13
2018-09-12T19:15:10.490Z,17.29
2018-09-12T19:17:40.379Z,17.23
2018-09-12T19:20:09.821Z,17.30
2018-09-12T19:22:40.624Z,17.28
2018-09-12T19:25:09.902Z,17.15
2018-09-12T19:27:38.907Z,17.21
2018-09-12T19:30:08.465Z,17.12
2018-09-12T19:32:37.888Z,17.07
2018-09-12T19:35:07.087Z,17.19
2018-09-12T19:37:36.052Z,17.18
2018-09-12T19:40:06.569Z,17.17
2018-09-12T19:42:35.596Z,17.22
2018-09-12T19:45:04.560Z,17.15
2018-09-12T19:47:33.541Z,17.21
2018-09-12T19:50:02.556Z,17.16
2018-09-12T19:52:32.512Z,17.20
2018-09-12T19:55:01.461Z,17.22
2018-09-12T19:57:30.404Z,17.24
2018-09-12T20:00:00.343Z,17.25
2018-09-12T20:02:32.979Z,17.18
2018-09-12T20:05:02.042Z,17.30
2018-09-12T20:07:32.692Z,17.27
2018-09-12T20:10:01.657Z,17.21
2018-09-12T20:12:31.671Z,17.20
2018-09-12T20:15:00.827Z,17.13
2018-09-12T20:17:30.768Z,17.18
2018-09-12T20:19:59.639Z,17.24
2018-09-12T20:22:28.832Z,17.26
2018-09-12T20:24:58.858Z,17.07
2018-09-12T20:27:27.810Z,17.10
2018-09-12T20:29:56.742Z,17.18
2018-09-12T20:32:25.731Z,17.19
2018-09-12T20:34:54.629Z,17.25
2018-09-12T20:37:23.523Z,17.20
2018-09-12T20:39:52.626Z,17.21
2018-09-12T20:42:21.620Z,17.23
2018-09-12T20:44:50.673Z,17.25
2018-09-12T20:47:19.556Z,17.29
2018-09-12T20:49:48.519Z,17.23
2018-09-12T20:52:17.584Z,17.22
2018-09-12T20:54:47.604Z,17.22
2018-09-12T20:57:16.504Z,17.28
2018-09-12T20:59:46.413Z,17.32
2018-09-12T21:02:16.374Z,17.22
2018-09-12T21:04:45.367Z,17.26
2018-09-12T21:07:14.302Z,17.35
2018-09-12T21:09:43.343Z,17.29
2018-09-12T21:12:12.433Z,17.21
2018-09-12T21:14:41.644Z,17.19
2018-09-12T21:17:12.032Z,17.18
2018-09-12T21:19:42.861Z,17.19
2018-09-12T21:22:12.848Z,17.15
2018-09-12T21:24:41.740Z,17.23
2018-09-12T21:27:10.785Z,17.27
2018-09-12T21:29:40.774Z,17.24
2018-09-12T21:32:09.772Z,17.27
2018-09-12T21:34:39.930Z,17.30
2018-09-12T21:37:08.920Z,17.32
2018-09-12T21:39:38.072Z,17.30
2018-09-12T21:42:07.095Z,17.16
2018-09-12T21:44:36.241Z,17.25
2018-09-12T21:47:05.146Z,17.24
2018-09-12T21:49:35.112Z,17.17
2018-09-12T21:52:04.257Z,17.19
2018-09-12T21:54:34.235Z,17.23
2018-09-12T21:57:03.176Z,17.25
2018-09-12T21:59:32.268Z,17.17
2018-09-12T22:02:01.462Z,17.17
2018-09-12T22:04:30.428Z,17.06
2018-09-12T22:06:59.488Z,17.13
2018-09-12T22:09:28.486Z,17.18
2018-09-12T22:11:57.483Z,17.06
2018-09-12T22:14:26.653Z,17.09
2018-09-12T22:16:55.708Z,17.10
2018-09-12T22:19:24.654Z,17.15
2018-09-12T22:21:54.544Z,17.11
2018-09-12T22:24:24.582Z,16.96
2018-09-12T22:26:53.649Z,16.97
2018-09-12T22:29:23.574Z,17.02
2018-09-12T22:31:53.626Z,16.99
2018-09-12T22:34:22.998Z,16.99
2018-09-12T22:36:52.969Z,16.98
2018-09-12T22:39:21.969Z,17.05
2018-09-12T22:41:50.941Z,16.98
2018-09-12T22:44:19.913Z,17.03
2018-09-12T22:46:49.956Z,17.06
2018-09-12T22:49:19.163Z,16.99
2018-09-12T22:51:48.370Z,16.99
2018-09-12T22:54:17.316Z,16.91
2018-09-12T22:56:46.708Z,16.83
2018-09-12T22:59:15.896Z,16.76
2018-09-12T23:01:44.868Z,16.87
2018-09-12T23:04:13.784Z,16.84
2018-09-12T23:06:42.788Z,16.87
2018-09-12T23:09:11.753Z,16.78
2018-09-12T23:11:41.718Z,16.75
2018-09-12T23:14:10.680Z,16.68
2018-09-12T23:16:40.197Z,16.62
2018-09-12T23:19:10.409Z,16.64
2018-09-12T23:21:39.419Z,16.59
2018-09-12T23:24:08.441Z,16.61
2018-09-12T23:26:37.389Z,16.68
2018-09-12T23:29:06.472Z,16.57
2018-09-12T23:31:35.349Z,16.54
2018-09-12T23:34:04.283Z,16.49
2018-09-12T23:36:34.226Z,16.49
2018-09-12T23:39:03.236Z,16.39
2018-09-12T23:41:32.124Z,16.45
2018-09-12T23:44:01.204Z,16.47
2018-09-12T23:46:32.201Z,16.50
2018-09-12T23:49:01.206Z,16.42
2018-09-12T23:51:30.177Z,16.33
2018-09-12T23:54:00.094Z,16.44
2018-09-12T23:56:29.150Z,16.36
2018-09-12T23:58:58.296Z,16.27
